createdAt,value
2022-10-04T00:02:22.386Z,13.20
2022-10-04T00:04:59.476Z,13.20
2022-10-04T00:15:21.561Z,13.20
2022-10-04T00:18:19.727Z,13.30
2022-10-04T00:21:04.750Z,13.20
2022-10-04T00:23:44.336Z,13.20
2022-10-04T00:26:30.507Z,13.20
2022-10-04T00:28:58.299Z,13.20
2022-10-04T00:37:00.918Z,13.10
2022-10-04T00:39:42.298Z,13.00
2022-10-04T00:42:42.946Z,13.00
2022-10-04T00:45:38.399Z,13.00
2022-10-04T00:48:32.518Z,13.00
2022-10-04T00:51:08.297Z,12.90
2022-10-04T00:56:32.100Z,12.90
2022-10-04T00:59:35.437Z,12.80
2022-10-04T01:02:08.093Z,12.80
2022-10-04T01:04:43.618Z,12.80
2022-10-04T01:07:14.816Z,12.80
2022-10-04T01:09:50.212Z,12.80
2022-10-04T01:12:28.099Z,12.80
2022-10-04T01:20:02.819Z,12.80
2022-10-04T01:22:38.476Z,12.80
2022-10-04T01:25:06.146Z,12.80
2022-10-04T01:27:41.463Z,12.80
2022-10-04T01:30:11.666Z,12.70
2022-10-04T01:32:40.430Z,12.70
2022-10-04T01:35:10.146Z,12.70
2022-10-04T01:45:04.088Z,12.70
2022-10-04T01:47:36.070Z,12.40
2022-10-04T01:50:12.365Z,12.30
2022-10-04T01:52:46.248Z,12.40
2022-10-04T01:55:17.566Z,12.50
2022-10-04T01:57:50.320Z,12.50
2022-10-04T02:00:21.045Z,12.50
2022-10-04T02:07:54.856Z,12.60
2022-10-04T02:10:25.519Z,12.60
2022-10-04T02:12:57.062Z,12.60
2022-10-04T02:15:27.629Z,12.50
2022-10-04T02:17:56.700Z,12.50
2022-10-04T02:20:26.399Z,12.50
2022-10-04T02:22:58.772Z,12.40
2022-10-04T02:25:26.889Z,12.40
2022-10-04T02:35:58.117Z,12.40
2022-10-04T02:38:33.657Z,12.30
2022-10-04T02:41:07.256Z,12.30
2022-10-04T02:43:39.416Z,12.30
2022-10-04T02:46:13.248Z,12.40
2022-10-04T02:48:47.544Z,12.40
2022-10-04T02:56:26.566Z,12.40
2022-10-04T02:58:54.356Z,12.50
2022-10-04T03:01:27.115Z,12.40
2022-10-04T03:03:57.328Z,12.40
2022-10-04T03:06:31.839Z,12.40
2022-10-04T03:09:02.387Z,12.40
2022-10-04T03:11:35.750Z,12.50
2022-10-04T03:14:06.730Z,12.50
2022-10-04T03:21:49.729Z,12.40
2022-10-04T03:24:20.380Z,12.20
2022-10-04T03:26:50.736Z,12.20
2022-10-04T03:29:19.768Z,12.10
2022-10-04T03:31:49.911Z,12.10
2022-10-04T03:34:20.006Z,12.20
2022-10-04T03:36:50.076Z,12.20
2022-10-04T03:45:07.697Z,12.30
2022-10-04T03:47:39.164Z,12.20
2022-10-04T03:50:16.245Z,12.20
2022-10-04T03:52:50.954Z,12.10
2022-10-04T03:55:20.110Z,12.10
2022-10-04T03:57:47.648Z,12.10
2022-10-04T04:00:18.881Z,12.20
2022-10-04T04:02:50.574Z,12.20
2022-10-04T04:13:27.759Z,12.20
2022-10-04T04:15:56.090Z,12.10
2022-10-04T04:18:25.351Z,12.10
2022-10-04T04:20:58.537Z,12.20
2022-10-04T04:23:32.269Z,12.30
2022-10-04T04:26:26.821Z,12.30
2022-10-04T04:29:02.821Z,12.30
2022-10-04T04:39:04.207Z,12.40
2022-10-04T04:41:34.869Z,12.30
2022-10-04T04:44:02.547Z,12.30
2022-10-04T04:46:31.565Z,12.30
2022-10-04T04:49:03.429Z,12.30
2022-10-04T04:51:33.202Z,12.30
2022-10-04T04:54:05.489Z,12.40
2022-10-04T05:01:23.495Z,12.30
2022-10-04T05:04:01.948Z,12.40
2022-10-04T05:06:36.706Z,12.40
2022-10-04T05:09:05.666Z,12.40
2022-10-04T05:11:35.159Z,12.40
2022-10-04T05:14:06.617Z,12.30
2022-10-04T05:16:40.786Z,12.40
2022-10-04T05:25:31.779Z,12.30
2022-10-04T05:27:59.536Z,12.20
2022-10-04T05:30:42.318Z,12.10
2022-10-04T05:33:14.251Z,12.10
2022-10-04T05:36:01.939Z,12.00
2022-10-04T05:38:37.289Z,11.90
2022-10-04T05:41:09.420Z,11.90
2022-10-04T05:43:44.476Z,11.90
2022-10-04T05:51:28.167Z,12.00
2022-10-04T05:53:57.629Z,12.00
2022-10-04T05:56:56.885Z,12.10
2022-10-04T05:59:41.040Z,12.10
2022-10-04T06:02:21.642Z,12.20
2022-10-04T06:05:01.938Z,12.20
2022-10-04T06:07:38.769Z,12.20
2022-10-04T06:16:00.880Z,12.10
2022-10-04T06:18:59.079Z,12.10
2022-10-04T06:21:28.999Z,12.20
2022-10-04T06:24:04.548Z,12.40
2022-10-04T06:26:40.289Z,12.40
2022-10-04T06:29:13.543Z,12.40
2022-10-04T06:32:11.359Z,12.40
2022-10-04T06:43:26.398Z,12.30
2022-10-04T06:46:12.700Z,12.20
2022-10-04T06:49:08.257Z,12.20
2022-10-04T06:51:46.109Z,12.10
2022-10-04T06:54:31.823Z,12.20
2022-10-04T06:57:29.248Z,12.10
2022-10-04T07:00:09.156Z,12.00
2022-10-04T07:07:47.444Z,12.00
2022-10-04T07:10:38.536Z,11.90
2022-10-04T07:13:16.039Z,11.80
2022-10-04T07:15:49.833Z,11.80
2022-10-04T07:18:27.246Z,11.70
2022-10-04T07:21:03.648Z,11.70
2022-10-04T07:23:35.768Z,11.80
2022-10-04T07:31:16.057Z,11.90
2022-10-04T07:33:48.616Z,12.10
2022-10-04T07:36:22.309Z,12.20
2022-10-04T07:38:55.987Z,12.40
2022-10-04T07:41:27.258Z,12.60
2022-10-04T07:43:58.926Z,12.70
2022-10-04T07:46:40.839Z,12.90
2022-10-04T07:54:20.758Z,13.10
2022-10-04T07:56:54.568Z,13.30
2022-10-04T07:59:34.508Z,13.40
2022-10-04T08:02:19.476Z,13.60
2022-10-04T08:04:58.310Z,13.70
2022-10-04T08:07:35.769Z,13.90
2022-10-04T08:15:40.704Z,13.90
2022-10-04T08:18:31.417Z,14.00
2022-10-04T08:21:01.698Z,14.20
2022-10-04T08:24:04.843Z,14.30
2022-10-04T08:26:51.066Z,14.40
2022-10-04T08:29:51.115Z,14.60
2022-10-04T08:38:35.819Z,14.90
2022-10-04T08:41:47.616Z,14.90
2022-10-04T08:44:51.799Z,15.20
2022-10-04T08:48:06.448Z,15.30
2022-10-04T08:51:15.547Z,15.30
2022-10-04T09:00:03.906Z,15.70
2022-10-04T09:02:57.563Z,15.70
2022-10-04T09:05:52.844Z,15.90
2022-10-04T09:08:46.826Z,15.90
2022-10-04T09:11:37.867Z,15.90
2022-10-04T09:14:36.898Z,16.10
2022-10-04T09:20:33.871Z,16.20
2022-10-04T09:23:09.541Z,16.30
2022-10-04T09:25:59.964Z,16.40
2022-10-04T09:29:05.256Z,16.50
2022-10-04T09:32:09.115Z,16.70
2022-10-04T09:34:51.278Z,16.60
2022-10-04T09:40:27.208Z,16.50
2022-10-04T09:43:26.520Z,16.80
2022-10-04T09:46:10.128Z,16.90
2022-10-04T09:48:43.454Z,17.10
2022-10-04T09:51:43.192Z,17.20
2022-10-04T09:54:39.064Z,17.30
2022-10-04T10:00:24.559Z,17.60
2022-10-04T10:03:24.836Z,17.70
2022-10-04T10:06:32.496Z,17.70
2022-10-04T10:09:45.647Z,17.80
2022-10-04T10:12:50.124Z,17.70
2022-10-04T10:23:04.638Z,18.10
2022-10-04T10:25:48.598Z,18.20
2022-10-04T10:28:39.004Z,18.30
2022-10-04T10:31:23.207Z,18.40
2022-10-04T10:34:28.366Z,18.60
2022-10-04T10:37:09.798Z,18.60
2022-10-04T10:40:17.068Z,18.60
2022-10-04T10:47:55.846Z,18.70
2022-10-04T10:50:58.006Z,18.50
2022-10-04T10:53:58.758Z,18.80
2022-10-04T10:56:45.479Z,19.00
2022-10-04T10:59:49.746Z,19.10
2022-10-04T11:03:12.081Z,19.10
2022-10-04T11:06:08.889Z,19.20
2022-10-04T11:14:50.717Z,19.70
2022-10-04T11:17:44.434Z,20.00
2022-10-04T11:20:53.132Z,20.00
2022-10-04T11:24:14.299Z,20.10
2022-10-04T11:27:01.816Z,20.40
2022-10-04T11:38:30.816Z,21.00
2022-10-04T11:41:13.377Z,21.20
2022-10-04T11:44:15.588Z,21.50
2022-10-04T11:46:51.025Z,21.50
2022-10-04T11:49:49.064Z,21.60
2022-10-04T11:52:59.096Z,21.60
2022-10-04T11:58:39.748Z,21.60
2022-10-04T12:01:39.866Z,21.70
2022-10-04T12:04:36.770Z,21.70
2022-10-04T12:07:26.573Z,21.90
2022-10-04T12:10:09.808Z,21.90
2022-10-04T12:13:05.595Z,22.00
2022-10-04T12:15:44.957Z,22.20
2022-10-04T12:23:57.708Z,22.30
2022-10-04T12:27:03.006Z,22.30
2022-10-04T12:30:02.563Z,22.50
2022-10-04T12:32:40.159Z,22.70
2022-10-04T12:35:22.193Z,22.60
2022-10-04T12:38:26.424Z,22.60
2022-10-04T12:41:01.725Z,22.60
2022-10-04T12:48:48.446Z,22.60
2022-10-04T12:51:36.457Z,22.40
2022-10-04T12:54:18.720Z,22.30
2022-10-04T12:56:50.439Z,22.10
2022-10-04T12:59:39.346Z,22.20
2022-10-04T13:02:21.339Z,22.00
2022-10-04T13:04:53.377Z,22.00
2022-10-04T13:15:05.777Z,22.00
2022-10-04T13:17:49.176Z,22.00
2022-10-04T13:20:38.199Z,21.80
2022-10-04T13:23:15.197Z,21.60
2022-10-04T13:26:08.842Z,21.50
2022-10-04T13:28:48.087Z,21.50
2022-10-04T13:31:24.881Z,21.20
2022-10-04T13:39:34.448Z,21.10
2022-10-04T13:42:19.919Z,20.90
2022-10-04T13:45:17.829Z,20.80
2022-10-04T13:48:19.524Z,20.70
2022-10-04T13:51:16.249Z,20.70
2022-10-04T13:54:10.305Z,20.80
2022-10-04T13:57:21.827Z,20.80
2022-10-04T14:05:38.692Z,20.40
2022-10-04T14:08:43.557Z,20.30
2022-10-04T14:11:44.730Z,20.30
2022-10-04T14:14:58.124Z,20.20
2022-10-04T14:18:02.297Z,20.20
2022-10-04T14:21:04.260Z,20.20
2022-10-04T14:29:33.420Z,20.10
2022-10-04T14:32:30.661Z,19.80
2022-10-04T14:35:07.610Z,19.80
2022-10-04T14:38:08.233Z,19.80
2022-10-04T14:41:18.477Z,19.70
2022-10-04T14:44:26.264Z,19.70
2022-10-04T14:52:31.919Z,19.40
2022-10-04T14:55:13.288Z,19.40
2022-10-04T14:57:59.136Z,19.20
2022-10-04T15:00:36.529Z,19.00
2022-10-04T15:03:28.369Z,19.00
2022-10-04T15:06:11.257Z,19.10
2022-10-04T15:08:59.127Z,19.20
2022-10-04T15:16:47.392Z,19.10
2022-10-04T15:19:30.997Z,18.90
2022-10-04T15:22:08.399Z,18.70
2022-10-04T15:24:48.954Z,18.70
2022-10-04T15:27:52.706Z,18.70
2022-10-04T15:30:39.786Z,18.70
2022-10-04T15:33:27.253Z,18.60
2022-10-04T15:41:20.867Z,18.60
2022-10-04T15:44:28.229Z,18.40
2022-10-04T15:47:10.030Z,18.30
2022-10-04T15:49:53.909Z,18.10
2022-10-04T15:52:48.639Z,18.10
2022-10-04T15:55:31.638Z,18.10
2022-10-04T15:58:31.442Z,18.20
2022-10-04T16:06:12.021Z,18.10
2022-10-04T16:09:03.449Z,18.20
2022-10-04T16:11:48.395Z,18.10
2022-10-04T16:14:37.966Z,17.90
2022-10-04T16:17:29.637Z,17.90
2022-10-04T16:20:29.168Z,17.90
2022-10-04T16:29:05.286Z,17.80
2022-10-04T16:32:01.077Z,17.40
2022-10-04T16:34:58.059Z,17.40
2022-10-04T16:37:39.209Z,17.30
2022-10-04T16:40:25.975Z,17.10
2022-10-04T16:42:59.696Z,17.00
2022-10-04T16:48:50.776Z,17.00
2022-10-04T16:51:55.301Z,16.80
2022-10-04T16:54:48.606Z,16.90
2022-10-04T16:57:36.019Z,16.90
2022-10-04T17:00:38.420Z,16.90
2022-10-04T17:03:16.887Z,16.90
2022-10-04T17:06:12.580Z,17.00
2022-10-04T17:14:01.496Z,16.80
2022-10-04T17:16:40.377Z,16.70
2022-10-04T17:19:27.713Z,16.70
2022-10-04T17:22:18.378Z,16.70
2022-10-04T17:24:59.267Z,16.60
2022-10-04T17:27:48.835Z,16.60
2022-10-04T17:30:21.720Z,16.60
2022-10-04T17:38:18.458Z,16.70
2022-10-04T17:40:57.150Z,16.70
2022-10-04T17:43:33.667Z,16.60
2022-10-04T17:46:16.698Z,16.60
2022-10-04T17:49:06.796Z,16.50
2022-10-04T17:51:59.272Z,16.50
2022-10-04T17:54:50.292Z,16.40
2022-10-04T18:02:50.105Z,16.50
2022-10-04T18:05:28.953Z,16.50
2022-10-04T18:08:03.211Z,16.40
2022-10-04T18:10:36.782Z,16.50
2022-10-04T18:13:17.100Z,16.50
2022-10-04T18:15:53.626Z,16.60
2022-10-04T18:18:32.151Z,16.50
2022-10-04T18:26:20.789Z,16.50
2022-10-04T18:28:56.782Z,16.50
2022-10-04T18:31:43.590Z,16.50
2022-10-04T18:34:33.681Z,16.40
2022-10-04T18:37:23.609Z,16.40
2022-10-04T18:39:56.241Z,16.50
2022-10-04T18:42:37.154Z,16.50
2022-10-04T18:50:36.532Z,16.30
2022-10-04T18:53:44.972Z,16.40
2022-10-04T18:56:17.282Z,16.40
2022-10-04T18:59:21.339Z,16.40
2022-10-04T19:02:04.879Z,16.30
2022-10-04T19:04:50.411Z,16.20
2022-10-04T19:15:42.551Z,16.30
2022-10-04T19:18:42.722Z,16.30
2022-10-04T19:21:29.537Z,16.20
2022-10-04T19:24:24.613Z,16.20
2022-10-04T19:27:07.832Z,16.30
2022-10-04T19:30:08.689Z,16.40
2022-10-04T19:41:06.573Z,16.20
2022-10-04T19:43:47.560Z,16.40
2022-10-04T19:46:36.441Z,16.40
2022-10-04T19:49:22.779Z,16.30
2022-10-04T19:52:11.241Z,16.30
2022-10-04T19:54:48.229Z,16.40
2022-10-04T20:05:30.919Z,16.40
2022-10-04T20:08:08.310Z,16.30
2022-10-04T20:10:44.719Z,16.20
2022-10-04T20:13:26.051Z,16.30
2022-10-04T20:16:03.540Z,16.20
2022-10-04T20:19:06.871Z,16.20
2022-10-04T20:21:50.400Z,16.30
2022-10-04T20:30:12.041Z,16.30
2022-10-04T20:33:06.749Z,16.50
2022-10-04T20:36:09.894Z,16.50
2022-10-04T20:38:57.629Z,16.50
2022-10-04T20:42:34.399Z,16.40
2022-10-04T20:45:25.074Z,16.40
2022-10-04T20:53:07.882Z,16.30
2022-10-04T20:55:46.541Z,16.20
2022-10-04T20:58:38.670Z,16.20
2022-10-04T21:01:45.689Z,16.20
2022-10-04T21:04:15.059Z,16.00
2022-10-04T21:06:54.562Z,16.00
2022-10-04T21:14:26.679Z,15.90
2022-10-04T21:16:59.900Z,15.90
2022-10-04T21:19:50.660Z,16.00
2022-10-04T21:22:37.811Z,15.80
2022-10-04T21:25:30.531Z,15.70
2022-10-04T21:28:30.923Z,15.50
2022-10-04T21:36:38.511Z,15.30
2022-10-04T21:39:06.095Z,15.40
2022-10-04T21:41:33.940Z,15.50
2022-10-04T21:44:01.231Z,15.50
2022-10-04T21:46:28.492Z,15.30
2022-10-04T21:48:55.881Z,15.40
2022-10-04T21:51:23.471Z,15.40
2022-10-04T21:56:32.141Z,15.50
2022-10-04T21:58:59.440Z,15.40
2022-10-04T22:01:27.038Z,15.40
2022-10-04T22:03:55.015Z,15.30
2022-10-04T22:06:22.322Z,15.30
2022-10-04T22:08:49.599Z,15.30
2022-10-04T22:11:16.872Z,15.30
2022-10-04T22:13:46.256Z,15.30
2022-10-04T22:21:18.180Z,15.50
2022-10-04T22:23:46.122Z,15.40
2022-10-04T22:26:16.441Z,15.50
2022-10-04T22:28:46.221Z,15.30
2022-10-04T22:31:14.656Z,15.20
2022-10-04T22:33:43.811Z,15.20
2022-10-04T22:36:15.871Z,15.20
2022-10-04T22:38:52.430Z,15.20
2022-10-04T22:46:34.292Z,15.30
2022-10-04T22:49:03.176Z,15.10
2022-10-04T22:51:30.401Z,15.20
2022-10-04T22:53:57.749Z,15.30
2022-10-04T22:56:25.650Z,15.30
2022-10-04T22:58:53.724Z,15.50
2022-10-04T23:01:21.691Z,15.50
2022-10-04T23:11:26.270Z,15.40
2022-10-04T23:13:53.612Z,15.40
2022-10-04T23:16:23.586Z,15.40
2022-10-04T23:18:51.779Z,15.40
2022-10-04T23:21:22.049Z,15.40
2022-10-04T23:23:50.679Z,15.40
2022-10-04T23:26:23.043Z,15.40
2022-10-04T23:28:52.460Z,15.40
2022-10-04T23:34:34.626Z,15.50
2022-10-04T23:37:02.520Z,15.40
2022-10-04T23:39:33.130Z,15.40
2022-10-04T23:42:01.730Z,15.40
2022-10-04T23:44:35.011Z,15.50
2022-10-04T23:47:03.210Z,15.50
2022-10-04T23:49:32.492Z,15.40
2022-10-04T23:52:03.072Z,15.40
